createdAt,value
2018-07-02T00:00:27.070Z,1004.58
2018-07-02T00:01:41.008Z,1004.57
2018-07-02T00:02:55.723Z,1004.61
2018-07-02T00:04:10.966Z,1004.54
2018-07-02T00:05:25.742Z,1004.59
2018-07-02T00:06:40.233Z,1004.57
2018-07-02T00:07:55.624Z,1004.54
2018-07-02T00:09:10.042Z,1004.61
2018-07-02T00:10:24.429Z,1004.6
2018-07-02T00:11:38.261Z,1004.59
2018-07-02T00:12:53.913Z,1004.54
2018-07-02T00:14:09.028Z,1004.52
2018-07-02T00:15:24.574Z,1004.56
2018-07-02T00:16:38.931Z,1004.57
2018-07-02T00:17:54.875Z,1004.53
2018-07-02T00:19:11.185Z,1004.57
2018-07-02T00:20:26.622Z,1004.5
2018-07-02T00:21:40.155Z,1004.46
2018-07-02T00:22:54.728Z,1004.44
2018-07-02T00:24:09.673Z,1004.37
2018-07-02T00:25:23.602Z,1004.44
2018-07-02T00:26:38.235Z,1004.45
2018-07-02T00:27:52.665Z,1004.46
2018-07-02T00:29:07.617Z,1004.42
2018-07-02T00:30:22.421Z,1004.43
2018-07-02T00:31:37.090Z,1004.43
2018-07-02T00:32:51.673Z,1004.45
2018-07-02T00:34:06.882Z,1004.45
2018-07-02T00:35:21.715Z,1004.46
2018-07-02T00:36:37.449Z,1004.44
2018-07-02T00:37:53.096Z,1004.45
2018-07-02T00:39:08.046Z,1004.44
2018-07-02T00:40:22.961Z,1004.45
2018-07-02T00:41:39.896Z,1004.51
2018-07-02T00:42:54.705Z,1004.57
2018-07-02T00:44:09.447Z,1004.5
2018-07-02T00:45:23.591Z,1004.6
2018-07-02T00:46:38.662Z,1004.47
2018-07-02T00:47:53.207Z,1004.49
2018-07-02T00:49:08.169Z,1004.51
2018-07-02T00:50:24.042Z,1004.49
2018-07-02T00:51:41.547Z,1004.45
2018-07-02T00:52:57.886Z,1004.42
2018-07-02T00:54:13.277Z,1004.49
2018-07-02T00:55:28.033Z,1004.55
2018-07-02T00:56:42.392Z,1004.46
2018-07-02T00:57:57.003Z,1004.49
2018-07-02T00:59:11.643Z,1004.46
2018-07-02T01:00:26.423Z,1004.45
2018-07-02T01:01:42.092Z,1004.53
2018-07-02T01:02:58.612Z,1004.48
2018-07-02T01:04:15.068Z,1004.51
2018-07-02T01:05:29.627Z,1004.5
2018-07-02T01:06:44.298Z,1004.49
2018-07-02T01:07:59.341Z,1004.46
2018-07-02T01:09:14.953Z,1004.48
2018-07-02T01:10:29.785Z,1004.49
2018-07-02T01:11:45.313Z,1004.46
2018-07-02T01:13:01.430Z,1004.42
2018-07-02T01:14:18.843Z,1004.48
2018-07-02T01:15:32.972Z,1004.52
2018-07-02T01:16:47.444Z,1004.58
2018-07-02T01:18:02.415Z,1004.59
2018-07-02T01:19:16.823Z,1004.54
2018-07-02T01:20:31.901Z,1004.61
2018-07-02T01:21:48.575Z,1004.62
2018-07-02T01:23:06.653Z,1004.55
2018-07-02T01:24:21.942Z,1004.55
2018-07-02T01:25:36.594Z,1004.52
2018-07-02T01:26:51.307Z,1004.51
2018-07-02T01:28:07.100Z,1004.56
2018-07-02T01:29:21.182Z,1004.49
2018-07-02T01:30:36.639Z,1004.55
2018-07-02T01:31:51.932Z,1004.51
2018-07-02T01:33:06.025Z,1004.54
2018-07-02T01:34:21.492Z,1004.52
2018-07-02T01:35:36.789Z,1004.45
2018-07-02T01:36:51.542Z,1004.41
2018-07-02T01:38:05.989Z,1004.41
2018-07-02T01:39:21.033Z,1004.42
2018-07-02T01:40:41.740Z,1004.46
2018-07-02T01:41:56.626Z,1004.43
2018-07-02T01:43:11.787Z,1004.4
2018-07-02T01:44:26.856Z,1004.43
2018-07-02T01:45:42.144Z,1004.46
2018-07-02T01:46:56.499Z,1004.45
2018-07-02T01:48:12.397Z,1004.46
2018-07-02T01:49:29.612Z,1004.48
2018-07-02T01:50:43.954Z,1004.47
2018-07-02T01:51:58.419Z,1004.48
2018-07-02T01:53:12.689Z,1004.49
2018-07-02T01:54:27.408Z,1004.52
2018-07-02T01:55:41.692Z,1004.47
2018-07-02T01:56:57.184Z,1004.5
2018-07-02T01:58:13.879Z,1004.48
2018-07-02T01:59:29.625Z,1004.45
2018-07-02T02:00:47.314Z,1004.51
2018-07-02T02:02:04.677Z,1004.45
2018-07-02T02:03:21.205Z,1004.46
2018-07-02T02:04:37.170Z,1004.46
2018-07-02T02:05:52.757Z,1004.49
2018-07-02T02:07:06.777Z,1004.47
2018-07-02T02:08:21.825Z,1004.45
2018-07-02T02:09:36.162Z,1004.47
2018-07-02T02:10:51.041Z,1004.46
2018-07-02T02:12:05.682Z,1004.51
2018-07-02T02:13:20.142Z,1004.44
2018-07-02T02:14:34.352Z,1004.44
2018-07-02T02:15:48.800Z,1004.48
2018-07-02T02:17:03.388Z,1004.53
2018-07-02T02:18:17.789Z,1004.55
2018-07-02T02:19:33.676Z,1004.54
2018-07-02T02:20:49.233Z,1004.51
2018-07-02T02:22:04.966Z,1004.55
2018-07-02T02:23:19.521Z,1004.57
2018-07-02T02:24:36.974Z,1004.56
2018-07-02T02:25:54.108Z,1004.58
2018-07-02T02:27:09.045Z,1004.59
2018-07-02T02:28:24.474Z,1004.61
2018-07-02T02:29:40.267Z,1004.65
2018-07-02T02:30:55.177Z,1004.61
2018-07-02T02:32:09.605Z,1004.62
2018-07-02T02:33:24.168Z,1004.65
2018-07-02T02:34:39.343Z,1004.63
2018-07-02T02:35:54.491Z,1004.6
2018-07-02T02:37:09.130Z,1004.59
2018-07-02T02:38:22.995Z,1004.61
2018-07-02T02:39:38.232Z,1004.63
2018-07-02T02:40:52.430Z,1004.61
2018-07-02T02:42:06.702Z,1004.63
2018-07-02T02:43:20.633Z,1004.55
2018-07-02T02:44:36.014Z,1004.59
2018-07-02T02:45:50.771Z,1004.6
2018-07-02T02:47:06.055Z,1004.59
2018-07-02T02:48:22.145Z,1004.55
2018-07-02T02:49:39.264Z,1004.54
2018-07-02T02:50:55.233Z,1004.51
2018-07-02T02:52:10.732Z,1004.52
2018-07-02T02:53:25.730Z,1004.53
2018-07-02T02:54:40.416Z,1004.51
2018-07-02T02:55:55.209Z,1004.54
2018-07-02T02:57:09.613Z,1004.59
2018-07-02T02:58:23.796Z,1004.56
2018-07-02T02:59:37.627Z,1004.58
2018-07-02T03:00:52.417Z,1004.6
2018-07-02T03:02:07.754Z,1004.57
2018-07-02T03:03:23.083Z,1004.59
2018-07-02T03:04:38.183Z,1004.56
2018-07-02T03:05:52.368Z,1004.55
2018-07-02T03:07:07.002Z,1004.56
2018-07-02T03:08:21.352Z,1004.57
2018-07-02T03:09:36.029Z,1004.59
2018-07-02T03:10:52.131Z,1004.59
2018-07-02T03:12:06.469Z,1004.62
2018-07-02T03:13:22.037Z,1004.55
2018-07-02T03:14:37.881Z,1004.59
2018-07-02T03:15:53.629Z,1004.61
2018-07-02T03:17:11.580Z,1004.61
2018-07-02T03:18:27.940Z,1004.56
2018-07-02T03:19:41.860Z,1004.57
2018-07-02T03:20:56.076Z,1004.57
2018-07-02T03:22:10.938Z,1004.61
2018-07-02T03:23:25.605Z,1004.61
2018-07-02T03:24:40.536Z,1004.56
2018-07-02T03:25:54.711Z,1004.61
2018-07-02T03:27:09.330Z,1004.48
2018-07-02T03:28:24.134Z,1004.54
2018-07-02T03:29:38.486Z,1004.53
2018-07-02T03:30:53.382Z,1004.57
2018-07-02T03:32:07.685Z,1004.54
2018-07-02T03:33:22.852Z,1004.57
2018-07-02T03:34:37.556Z,1004.64
2018-07-02T03:35:53.753Z,1004.61
2018-07-02T03:37:10.555Z,1004.59
2018-07-02T03:38:27.613Z,1004.59
2018-07-02T03:39:46.183Z,1004.65
2018-07-02T03:41:01.163Z,1004.6
2018-07-02T03:42:15.892Z,1004.59
2018-07-02T03:43:30.100Z,1004.58
2018-07-02T03:44:45.203Z,1004.57
2018-07-02T03:46:00.299Z,1004.56
2018-07-02T03:47:14.630Z,1004.58
2018-07-02T03:48:28.817Z,1004.65
2018-07-02T03:49:43.522Z,1004.7
2018-07-02T03:50:58.274Z,1004.67
2018-07-02T03:52:13.096Z,1004.7
2018-07-02T03:53:27.880Z,1004.73
2018-07-02T03:54:43.906Z,1004.7
2018-07-02T03:56:00.153Z,1004.72
2018-07-02T03:57:17.142Z,1004.67
2018-07-02T03:58:34.651Z,1004.66
2018-07-02T03:59:50.648Z,1004.72
2018-07-02T04:01:06.698Z,1004.76
2018-07-02T04:02:21.771Z,1004.76
2018-07-02T04:03:36.742Z,1004.77
2018-07-02T04:04:51.078Z,1004.79
2018-07-02T04:06:05.458Z,1004.78
2018-07-02T04:07:20.177Z,1004.81
2018-07-02T04:08:34.747Z,1004.8
2018-07-02T04:09:49.413Z,1004.84
2018-07-02T04:11:03.843Z,1004.84
2018-07-02T04:12:18.056Z,1004.83
2018-07-02T04:13:32.389Z,1004.81
2018-07-02T04:14:46.728Z,1004.79
2018-07-02T04:16:03.311Z,1004.79
2018-07-02T04:17:19.800Z,1004.86
2018-07-02T04:18:34.519Z,1004.85
2018-07-02T04:19:50.896Z,1004.9
2018-07-02T04:21:05.418Z,1004.88
2018-07-02T04:22:21.484Z,1004.95
2018-07-02T04:23:36.334Z,1004.95
2018-07-02T04:24:53.538Z,1005
2018-07-02T04:26:09.053Z,1004.97
2018-07-02T04:27:23.930Z,1004.97
2018-07-02T04:28:38.669Z,1005.02
2018-07-02T04:29:53.254Z,1005.04
2018-07-02T04:31:07.233Z,1005.06
2018-07-02T04:32:24.124Z,1005.06
2018-07-02T04:33:41.515Z,1005.06
2018-07-02T04:34:57.287Z,1005.08
2018-07-02T04:36:12.817Z,1005.06
2018-07-02T04:37:28.911Z,1005.07
2018-07-02T04:38:43.914Z,1005.07
2018-07-02T04:39:58.266Z,1005.05
2018-07-02T04:41:15.244Z,1005.05
2018-07-02T04:42:32.427Z,1005.02
2018-07-02T04:43:50.054Z,1005.05
2018-07-02T04:45:07.183Z,1005.04
2018-07-02T04:46:24.829Z,1005.02
2018-07-02T04:47:39.168Z,1005.01
2018-07-02T04:48:57.068Z,1004.96
2018-07-02T04:50:12.517Z,1004.97
2018-07-02T04:51:28.682Z,1005.03
2018-07-02T04:52:47.248Z,1005.07
2018-07-02T04:54:04.152Z,1005.06
2018-07-02T04:55:22.475Z,1005.1
2018-07-02T04:56:39.436Z,1005.13
2018-07-02T04:57:57.858Z,1005.14
2018-07-02T04:59:12.450Z,1005.25
2018-07-02T05:00:28.266Z,1005.19
2018-07-02T05:01:44.067Z,1005.15
2018-07-02T05:02:58.497Z,1005.22
2018-07-02T05:04:13.636Z,1005.22
2018-07-02T05:05:28.955Z,1005.22
2018-07-02T05:06:43.719Z,1005.24
2018-07-02T05:07:58.554Z,1005.2
2018-07-02T05:09:13.400Z,1005.23
2018-07-02T05:10:27.754Z,1005.26
2018-07-02T05:11:42.063Z,1005.32
2018-07-02T05:12:56.367Z,1005.23
2018-07-02T05:14:23.635Z,1005.23
2018-07-02T05:15:38.603Z,1005.17
2018-07-02T05:16:54.005Z,1005.16
2018-07-02T05:18:08.333Z,1005.16
2018-07-02T05:19:22.812Z,1005.15
2018-07-02T05:20:37.306Z,1005.17
2018-07-02T05:21:51.110Z,1005.2
2018-07-02T05:23:05.465Z,1005.2
2018-07-02T05:24:20.393Z,1005.23
2018-07-02T05:25:35.484Z,1005.23
2018-07-02T05:26:49.507Z,1005.19
2018-07-02T05:28:04.560Z,1005.21
2018-07-02T05:29:18.231Z,1005.15
2018-07-02T05:30:32.263Z,1005.09
2018-07-02T05:31:46.458Z,1005.1
2018-07-02T05:33:01.097Z,1005.14
2018-07-02T05:34:15.529Z,1005.12
2018-07-02T05:35:30.276Z,1005.14
2018-07-02T05:36:44.456Z,1005.14
2018-07-02T05:37:59.114Z,1005.15
2018-07-02T05:39:13.552Z,1005.13
2018-07-02T05:40:28.619Z,1005.15
2018-07-02T05:41:42.254Z,1005.14
2018-07-02T05:42:56.840Z,1005.05
2018-07-02T05:44:11.622Z,1004.97
2018-07-02T05:45:25.863Z,1004.95
2018-07-02T05:46:40.094Z,1004.93
2018-07-02T05:47:54.693Z,1004.88
2018-07-02T05:49:09.592Z,1004.91
2018-07-02T05:50:23.868Z,1004.8
2018-07-02T05:51:38.758Z,1004.86
2018-07-02T05:52:53.053Z,1004.88
2018-07-02T05:54:07.474Z,1004.83
2018-07-02T05:55:21.798Z,1004.86
2018-07-02T05:56:36.534Z,1004.83
2018-07-02T05:57:51.765Z,1004.88
2018-07-02T05:59:06.472Z,1004.75
2018-07-02T06:00:21.285Z,1004.76
2018-07-02T06:01:37.298Z,1004.73
2018-07-02T06:02:52.215Z,1004.72
2018-07-02T06:04:05.912Z,1004.8
2018-07-02T06:05:21.182Z,1004.79
2018-07-02T06:06:36.396Z,1004.81
2018-07-02T06:07:51.275Z,1004.85
2018-07-02T06:09:05.884Z,1004.8
2018-07-02T06:10:20.503Z,1004.8
2018-07-02T06:11:35.181Z,1004.81
2018-07-02T06:12:50.495Z,1004.86
2018-07-02T06:14:05.025Z,1004.86
2018-07-02T06:15:19.308Z,1004.91
2018-07-02T06:16:33.692Z,1004.87
2018-07-02T06:17:49.051Z,1004.83
2018-07-02T06:19:03.935Z,1004.76
2018-07-02T06:20:18.512Z,1004.85
2018-07-02T06:21:33.225Z,1004.82
2018-07-02T06:22:48.029Z,1004.75
2018-07-02T06:24:03.065Z,1004.79
2018-07-02T06:25:17.312Z,1004.78
2018-07-02T06:26:31.465Z,1004.76
2018-07-02T06:27:45.776Z,1004.84
2018-07-02T06:28:59.725Z,1004.85
2018-07-02T06:30:14.519Z,1004.8
2018-07-02T06:31:29.849Z,1004.78
2018-07-02T06:32:44.489Z,1004.81
2018-07-02T06:33:58.962Z,1004.77
2018-07-02T06:35:14.408Z,1004.79
2018-07-02T06:36:29.320Z,1004.84
2018-07-02T06:37:43.910Z,1004.85
2018-07-02T06:38:59.664Z,1004.86
2018-07-02T06:40:14.241Z,1004.83
2018-07-02T06:41:28.395Z,1004.87
2018-07-02T06:42:44.164Z,1004.89
2018-07-02T06:43:59.559Z,1004.94
2018-07-02T06:45:14.823Z,1004.91
2018-07-02T06:46:29.433Z,1004.95
2018-07-02T06:47:44.421Z,1004.92
2018-07-02T06:48:59.755Z,1005.03
2018-07-02T06:50:15.208Z,1004.92
2018-07-02T06:51:30.593Z,1004.94
2018-07-02T06:52:46.027Z,1004.97
2018-07-02T06:54:00.496Z,1004.89
2018-07-02T06:55:16.461Z,1004.96
2018-07-02T06:56:32.248Z,1004.89
2018-07-02T06:57:47.000Z,1004.95
2018-07-02T06:59:02.653Z,1004.93
2018-07-02T07:00:18.600Z,1005.06
2018-07-02T07:01:33.495Z,1005.09
2018-07-02T07:02:48.463Z,1005.12
2018-07-02T07:04:03.388Z,1005.09
2018-07-02T07:05:17.756Z,1005.07
2018-07-02T07:06:33.307Z,1005.08
2018-07-02T07:07:49.965Z,1005.1
2018-07-02T07:09:05.516Z,1005.09
2018-07-02T07:10:21.613Z,1005.17
2018-07-02T07:11:38.075Z,1005.04
2018-07-02T07:12:55.895Z,1005.04
2018-07-02T07:14:10.859Z,1005.08
2018-07-02T07:15:25.870Z,1005.16
2018-07-02T07:16:41.634Z,1005.08
2018-07-02T07:17:56.582Z,1005.05
2018-07-02T07:19:12.377Z,1005.02
2018-07-02T07:20:27.321Z,1005.01
2018-07-02T07:21:42.665Z,1004.99
2018-07-02T07:22:58.161Z,1004.97
2018-07-02T07:24:14.119Z,1004.94
2018-07-02T07:25:29.793Z,1004.98
2018-07-02T07:26:45.058Z,1005.03
2018-07-02T07:28:00.107Z,1004.99
2018-07-02T07:29:14.988Z,1005.04
2018-07-02T07:30:30.762Z,1005.09
2018-07-02T07:31:45.278Z,1005.05
2018-07-02T07:33:01.469Z,1005.04
2018-07-02T07:34:17.468Z,1005.05
2018-07-02T07:35:33.041Z,1005
2018-07-02T07:36:49.198Z,1004.98
2018-07-02T07:38:05.302Z,1005.04
2018-07-02T07:39:20.814Z,1005.05
2018-07-02T07:40:36.080Z,1005.08
2018-07-02T07:41:51.280Z,1005.11
2018-07-02T07:43:06.860Z,1005.08
2018-07-02T07:44:22.073Z,1005.05
2018-07-02T07:45:38.323Z,1004.99
2018-07-02T07:46:53.778Z,1004.97
2018-07-02T07:48:09.422Z,1004.99
2018-07-02T07:49:24.773Z,1004.95
2018-07-02T07:50:39.742Z,1004.94
2018-07-02T07:51:55.256Z,1004.93
2018-07-02T07:53:09.720Z,1005.03
2018-07-02T07:54:25.164Z,1005.01
2018-07-02T07:55:40.632Z,1004.96
2018-07-02T07:56:55.171Z,1004.96
2018-07-02T07:58:11.352Z,1004.97
2018-07-02T07:59:27.646Z,1004.91
2018-07-02T08:00:43.139Z,1004.84
2018-07-02T08:01:57.933Z,1004.83
2018-07-02T08:03:13.171Z,1004.9
2018-07-02T08:04:28.701Z,1004.92
2018-07-02T08:05:45.997Z,1004.92
2018-07-02T08:07:00.956Z,1004.93
2018-07-02T08:08:15.942Z,1004.93
2018-07-02T08:09:31.209Z,1004.9
2018-07-02T08:10:46.332Z,1004.89
2018-07-02T08:12:01.733Z,1004.9
2018-07-02T08:13:16.023Z,1004.9
2018-07-02T08:14:30.859Z,1004.87
2018-07-02T08:15:46.462Z,1004.87
2018-07-02T08:17:01.681Z,1004.82
2018-07-02T08:18:16.185Z,1004.82
2018-07-02T08:19:30.729Z,1004.85
2018-07-02T08:20:45.848Z,1004.87
2018-07-02T08:22:00.216Z,1004.79
2018-07-02T08:23:14.717Z,1004.86
2018-07-02T08:24:29.351Z,1004.85
2018-07-02T08:25:43.953Z,1004.76
2018-07-02T08:26:58.730Z,1004.82
2018-07-02T08:28:15.025Z,1004.74
2018-07-02T08:29:29.656Z,1004.75
2018-07-02T08:30:44.040Z,1004.75
2018-07-02T08:31:59.696Z,1004.81
2018-07-02T08:33:14.680Z,1004.77
2018-07-02T08:34:30.429Z,1004.73
2018-07-02T08:35:45.601Z,1004.77
2018-07-02T08:37:00.432Z,1004.89
2018-07-02T08:38:14.596Z,1004.87
2018-07-02T08:39:29.419Z,1004.8
2018-07-02T08:40:44.561Z,1004.84
2018-07-02T08:41:58.559Z,1004.74
2018-07-02T08:43:13.682Z,1004.78
2018-07-02T08:44:28.106Z,1004.75
2018-07-02T08:45:42.920Z,1004.78
2018-07-02T08:46:57.492Z,1004.75
2018-07-02T08:48:13.050Z,1004.78
2018-07-02T08:49:28.678Z,1004.74
2018-07-02T08:50:44.722Z,1004.76
2018-07-02T08:51:59.799Z,1004.81
2018-07-02T08:53:15.766Z,1004.77
2018-07-02T08:54:29.859Z,1004.74
2018-07-02T08:55:45.227Z,1004.72
2018-07-02T08:56:59.815Z,1004.68
2018-07-02T08:58:15.324Z,1004.66
2018-07-02T08:59:31.199Z,1004.67
2018-07-02T09:00:48.080Z,1004.7
2018-07-02T09:02:05.485Z,1004.67
2018-07-02T09:03:20.675Z,1004.67
2018-07-02T09:04:35.510Z,1004.63
2018-07-02T09:05:51.433Z,1004.65
2018-07-02T09:07:07.086Z,1004.65
2018-07-02T09:08:21.844Z,1004.67
2018-07-02T09:09:37.750Z,1004.67
2018-07-02T09:10:53.401Z,1004.64
2018-07-02T09:12:09.442Z,1004.6
2018-07-02T09:13:24.907Z,1004.66
2018-07-02T09:14:39.539Z,1004.57
2018-07-02T09:15:54.831Z,1004.61
2018-07-02T09:17:10.606Z,1004.65
2018-07-02T09:18:26.260Z,1004.57
2018-07-02T09:19:40.989Z,1004.53
2018-07-02T09:20:56.690Z,1004.64
2018-07-02T09:22:11.370Z,1004.73
2018-07-02T09:23:26.413Z,1004.72
2018-07-02T09:24:41.064Z,1004.68
2018-07-02T09:25:56.066Z,1004.64
2018-07-02T09:27:10.865Z,1004.66
2018-07-02T09:28:26.109Z,1004.65
2018-07-02T09:29:42.615Z,1004.64
2018-07-02T09:30:58.028Z,1004.58
2018-07-02T09:32:12.748Z,1004.57
2018-07-02T09:33:27.897Z,1004.52
2018-07-02T09:34:41.915Z,1004.47
2018-07-02T09:35:56.805Z,1004.53
2018-07-02T09:37:13.224Z,1004.53
2018-07-02T09:38:28.519Z,1004.5
2018-07-02T09:39:43.735Z,1004.46
2018-07-02T09:40:58.721Z,1004.46
2018-07-02T09:42:12.942Z,1004.49
2018-07-02T09:43:28.071Z,1004.61
2018-07-02T09:44:43.684Z,1004.5
2018-07-02T09:45:58.101Z,1004.49
2018-07-02T09:47:13.111Z,1004.47
2018-07-02T09:48:28.968Z,1004.47
2018-07-02T09:49:44.940Z,1004.45
2018-07-02T09:50:59.697Z,1004.49
2018-07-02T09:52:13.613Z,1004.4
2018-07-02T09:53:28.045Z,1004.31
2018-07-02T09:54:42.679Z,1004.53
2018-07-02T09:55:59.884Z,1004.56
2018-07-02T09:57:16.469Z,1004.48
2018-07-02T09:58:31.124Z,1004.5
2018-07-02T09:59:45.892Z,1004.5
2018-07-02T10:01:02.007Z,1004.55
2018-07-02T10:02:18.271Z,1004.61
2018-07-02T10:03:35.887Z,1004.53
2018-07-02T10:04:50.712Z,1004.55
2018-07-02T10:06:05.768Z,1004.64
2018-07-02T10:07:21.453Z,1004.6
2018-07-02T10:08:36.870Z,1004.53
2018-07-02T10:09:51.603Z,1004.42
2018-07-02T10:11:06.318Z,1004.42
2018-07-02T10:12:21.236Z,1004.51
2018-07-02T10:13:36.839Z,1004.44
2018-07-02T10:14:51.555Z,1004.54
2018-07-02T10:16:07.324Z,1004.51
2018-07-02T10:17:21.997Z,1004.46
2018-07-02T10:18:36.919Z,1004.54
2018-07-02T10:19:52.107Z,1004.46
2018-07-02T10:21:06.992Z,1004.51
2018-07-02T10:22:23.959Z,1004.45
2018-07-02T10:23:39.268Z,1004.52
2018-07-02T10:24:53.804Z,1004.52
2018-07-02T10:26:08.704Z,1004.45
2018-07-02T10:27:23.882Z,1004.43
2018-07-02T10:28:38.470Z,1004.4
2018-07-02T10:29:55.108Z,1004.33
2018-07-02T10:31:13.104Z,1004.37
2018-07-02T10:32:29.619Z,1004.39
2018-07-02T10:33:46.195Z,1004.37
2018-07-02T10:35:00.320Z,1004.37
2018-07-02T10:36:16.316Z,1004.43
2018-07-02T10:37:30.187Z,1004.43
2018-07-02T10:38:45.263Z,1004.48
2018-07-02T10:40:00.307Z,1004.66
2018-07-02T10:41:16.397Z,1004.58
2018-07-02T10:42:32.556Z,1004.55
2018-07-02T10:43:48.142Z,1004.48
2018-07-02T10:45:02.971Z,1004.42
2018-07-02T10:46:20.655Z,1004.48
2018-07-02T10:47:35.458Z,1004.5
2018-07-02T10:48:50.712Z,1004.52
2018-07-02T10:50:06.188Z,1004.56
2018-07-02T10:51:22.230Z,1004.51
2018-07-02T10:52:37.175Z,1004.42
2018-07-02T10:53:51.551Z,1004.44
2018-07-02T10:55:07.028Z,1004.43
2018-07-02T10:56:23.622Z,1004.51
2018-07-02T10:57:38.598Z,1004.45
2018-07-02T10:58:54.325Z,1004.52
2018-07-02T11:00:10.356Z,1004.72
2018-07-02T11:01:25.541Z,1004.61
2018-07-02T11:02:42.510Z,1004.6
2018-07-02T11:03:59.142Z,1004.48
2018-07-02T11:05:17.037Z,1004.53
2018-07-02T11:06:32.847Z,1004.51
2018-07-02T11:07:49.959Z,1004.52
2018-07-02T11:09:07.139Z,1004.46
2018-07-02T11:10:22.036Z,1004.43
2018-07-02T11:11:37.627Z,1004.4
2018-07-02T11:12:53.550Z,1004.4
2018-07-02T11:14:08.653Z,1004.5
2018-07-02T11:15:25.964Z,1004.45
2018-07-02T11:16:41.668Z,1004.45
2018-07-02T11:17:57.156Z,1004.49
2018-07-02T11:19:15.814Z,1004.39
2018-07-02T11:20:30.516Z,1004.48
2018-07-02T11:21:45.620Z,1004.47
2018-07-02T11:23:00.075Z,1004.43
2018-07-02T11:24:18.451Z,1004.51
2018-07-02T11:25:37.112Z,1004.36
2018-07-02T11:26:56.568Z,1004.48
2018-07-02T11:28:15.355Z,1004.4
2018-07-02T11:29:32.647Z,1004.41
2018-07-02T11:30:49.995Z,1004.28
2018-07-02T11:32:07.799Z,1004.27
2018-07-02T11:35:06.599Z,1004.21
2018-07-02T11:36:24.853Z,1004.18
2018-07-02T11:37:44.820Z,1004.17
2018-07-02T11:39:01.682Z,1004.23
2018-07-02T11:40:17.838Z,1004.28
2018-07-02T11:41:35.017Z,1004.23
2018-07-02T11:42:52.722Z,1004.19
2018-07-02T11:44:09.026Z,1004.15
2018-07-02T11:45:24.812Z,1004.17
2018-07-02T11:46:40.141Z,1004.17
2018-07-02T11:47:56.286Z,1004.15
2018-07-02T11:49:11.541Z,1004.12
2018-07-02T11:50:25.998Z,1004.1
2018-07-02T11:51:41.709Z,1004.13
2018-07-02T11:52:58.698Z,1004.06
2018-07-02T11:54:14.991Z,1004.06
2018-07-02T11:55:30.487Z,1004.13
2018-07-02T11:56:47.859Z,1004.22
2018-07-02T11:58:03.822Z,1004.09
2018-07-02T11:59:19.246Z,1004.05
2018-07-02T12:00:34.931Z,1004.08
2018-07-02T12:01:50.892Z,1004.1
2018-07-02T12:03:06.675Z,1004.02
2018-07-02T12:04:25.893Z,1004.08
2018-07-02T12:05:41.047Z,1004.07
2018-07-02T12:06:59.358Z,1004.05
2018-07-02T12:08:15.984Z,1003.96
2018-07-02T12:09:32.085Z,1004.03
2018-07-02T12:10:48.860Z,1004.12
2018-07-02T12:12:06.753Z,1004.07
2018-07-02T12:13:25.395Z,1003.99
2018-07-02T12:14:44.269Z,1004.01
2018-07-02T12:16:01.001Z,1004.04
2018-07-02T12:17:18.485Z,1004.03
2018-07-02T12:18:33.955Z,1004.02
2018-07-02T12:19:49.603Z,1004.02
2018-07-02T12:21:06.969Z,1003.98
2018-07-02T12:22:22.377Z,1003.95
2018-07-02T12:23:38.738Z,1003.99
2018-07-02T12:24:58.322Z,1004.05
2018-07-02T12:26:15.704Z,1004.03
2018-07-02T12:27:34.329Z,1003.97
2018-07-02T12:28:52.642Z,1004.06
2018-07-02T12:30:11.226Z,1004.01
2018-07-02T12:31:26.961Z,1004.04
2018-07-02T12:32:46.543Z,1004.09
2018-07-02T12:34:06.591Z,1004.11
2018-07-02T12:35:24.945Z,1003.97
2018-07-02T12:36:43.904Z,1003.94
2018-07-02T12:38:01.784Z,1003.98
2018-07-02T12:39:21.015Z,1003.99
2018-07-02T12:42:12.568Z,1003.98
2018-07-02T12:43:28.646Z,1003.91
2018-07-02T12:44:49.255Z,1003.95
2018-07-02T12:46:06.655Z,1003.89
2018-07-02T12:47:26.317Z,1003.92
2018-07-02T12:48:47.582Z,1003.98
2018-07-02T12:50:05.111Z,1003.94
2018-07-02T12:51:24.549Z,1003.87
2018-07-02T12:52:41.706Z,1003.91
2018-07-02T12:53:58.981Z,1003.88
2018-07-02T12:55:14.363Z,1003.99
2018-07-02T12:56:31.802Z,1003.92
2018-07-02T12:57:47.765Z,1003.99
2018-07-02T12:59:03.435Z,1003.88
2018-07-02T13:00:20.598Z,1003.95
2018-07-02T13:01:39.083Z,1003.89
2018-07-02T13:02:56.690Z,1003.86
2018-07-02T13:04:12.778Z,1003.83
2018-07-02T13:05:31.071Z,1003.76
2018-07-02T13:06:50.765Z,1003.81
2018-07-02T13:08:08.451Z,1003.87
2018-07-02T13:09:25.450Z,1003.91
2018-07-02T13:10:40.749Z,1003.87
2018-07-02T13:11:55.723Z,1003.87
2018-07-02T13:13:12.161Z,1003.86
2018-07-02T13:14:28.581Z,1003.78
2018-07-02T13:15:43.926Z,1003.74
2018-07-02T13:16:58.848Z,1003.7
2018-07-02T13:18:14.811Z,1003.73
2018-07-02T13:19:31.353Z,1003.7
2018-07-02T13:20:49.578Z,1003.68
2018-07-02T13:22:05.686Z,1003.71
2018-07-02T13:23:20.771Z,1003.76
2018-07-02T13:24:35.653Z,1003.89
2018-07-02T13:25:52.079Z,1003.81
2018-07-02T13:27:07.617Z,1003.76
2018-07-02T13:28:23.406Z,1003.75
2018-07-02T13:29:38.013Z,1003.65
2018-07-02T13:30:54.362Z,1003.64
2018-07-02T13:32:09.793Z,1003.65
2018-07-02T13:33:26.877Z,1003.58
2018-07-02T13:34:42.615Z,1003.67
2018-07-02T13:35:56.954Z,1003.61
2018-07-02T13:37:12.598Z,1003.8
2018-07-02T13:38:26.992Z,1003.62
2018-07-02T13:39:42.758Z,1003.69
2018-07-02T13:40:57.915Z,1003.77
2018-07-02T13:42:12.656Z,1003.65
2018-07-02T13:43:27.905Z,1003.59
2018-07-02T13:44:43.815Z,1003.63
2018-07-02T13:46:04.352Z,1003.56
2018-07-02T13:47:22.986Z,1003.56
2018-07-02T13:48:43.564Z,1003.61
2018-07-02T13:50:03.236Z,1003.63
2018-07-02T13:51:22.367Z,1003.53
2018-07-02T13:52:41.726Z,1003.49
2018-07-02T13:53:59.438Z,1003.48
2018-07-02T13:55:15.006Z,1003.43
2018-07-02T13:56:30.549Z,1003.42
2018-07-02T13:57:48.725Z,1003.41
2018-07-02T13:59:05.401Z,1003.38
2018-07-02T14:00:22.900Z,1003.36
2018-07-02T14:01:38.539Z,1003.31
2018-07-02T14:02:54.251Z,1003.27
2018-07-02T14:04:11.380Z,1003.29
2018-07-02T14:05:28.280Z,1003.34
2018-07-02T14:06:45.523Z,1003.31
2018-07-02T14:08:02.987Z,1003.22
2018-07-02T14:09:19.955Z,1003.37
2018-07-02T14:10:36.553Z,1003.28
2018-07-02T14:11:53.979Z,1003.21
2018-07-02T14:13:09.925Z,1003.29
2018-07-02T14:14:25.648Z,1003.24
2018-07-02T14:15:42.565Z,1003.32
2018-07-02T14:16:59.107Z,1003.21
2018-07-02T14:18:15.189Z,1003.18
2018-07-02T14:19:31.542Z,1003.27
2018-07-02T14:20:47.223Z,1003.23
2018-07-02T14:22:02.931Z,1003.33
2018-07-02T14:23:20.931Z,1003.22
2018-07-02T14:24:39.876Z,1003.26
2018-07-02T14:25:54.826Z,1003.41
2018-07-02T14:27:11.298Z,1003.29
2018-07-02T14:28:27.915Z,1003.32
2018-07-02T14:29:44.082Z,1003.38
2018-07-02T14:31:01.144Z,1003.29
2018-07-02T14:32:16.308Z,1003.33
2018-07-02T14:33:31.498Z,1003.29
2018-07-02T14:34:45.651Z,1003.36
2018-07-02T14:36:02.620Z,1003.28
2018-07-02T14:37:18.900Z,1003.2
2018-07-02T14:38:33.496Z,1003.19
2018-07-02T14:39:49.231Z,1003.17
2018-07-02T14:41:05.354Z,1003.1
2018-07-02T14:42:19.907Z,1003.37
2018-07-02T14:43:36.132Z,1003.17
2018-07-02T14:44:52.300Z,1003.08
2018-07-02T14:46:08.447Z,1003.05
2018-07-02T14:47:24.416Z,1003.03
2018-07-02T14:48:41.548Z,1002.96
2018-07-02T14:49:56.989Z,1003
2018-07-02T14:51:13.450Z,1003.09
2018-07-02T14:52:29.498Z,1002.99
2018-07-02T14:53:46.705Z,1002.98
2018-07-02T14:55:04.955Z,1002.95
2018-07-02T14:56:19.640Z,1002.91
2018-07-02T14:57:34.443Z,1002.92
2018-07-02T14:58:51.230Z,1002.87
2018-07-02T15:00:06.030Z,1002.87
2018-07-02T15:01:20.847Z,1002.86
2018-07-02T15:02:37.472Z,1002.82
2018-07-02T15:03:52.613Z,1002.87
2018-07-02T15:05:07.797Z,1002.89
2018-07-02T15:06:22.821Z,1003.02
2018-07-02T15:07:38.343Z,1002.96
2018-07-02T15:08:53.494Z,1002.86
2018-07-02T15:10:08.078Z,1002.89
2018-07-02T15:11:24.628Z,1003
2018-07-02T15:12:41.662Z,1002.95
2018-07-02T15:13:58.260Z,1003.07
2018-07-02T15:15:16.494Z,1003
2018-07-02T15:16:31.975Z,1002.92
2018-07-02T15:17:49.284Z,1002.92
2018-07-02T15:19:06.183Z,1002.95
2018-07-02T15:20:24.181Z,1002.84